Time;durP1;ratioP1;P1;durP2;ratioP2;P2;SDS_P1;SDS_P2;PMS_P1;PMS_P2;Temp;Humidity;BMP_temperature;BMP_pressure;BME280_temperature;BME280_humidity;BME280_pressure;Samples;Min_cycle;Max_cycle;Signal;HPM_P1;HPM_P2
2022/06/09 00:02:00;;;;;;;6.10;4.82;;;;;;;16.39;94.47;94041.97;5051067;28;20288;-74
2022/06/09 00:04:32;;;;;;;5.28;3.95;;;;;;;16.32;95.37;94048.16;5050612;28;20200;-74
2022/06/09 00:07:03;;;;;;;6.85;3.90;;;;;;;16.30;95.49;94045.00;5050416;28;20764;-74
2022/06/09 00:09:37;;;;;;;7.45;4.30;;;;;;;16.19;95.91;94038.69;5037100;28;20195;-74
2022/06/09 00:12:05;;;;;;;5.63;3.35;;;;;;;16.17;96.37;94041.00;5050487;28;20273;-74
2022/06/09 00:14:32;;;;;;;7.15;3.63;;;;;;;16.15;96.48;94037.06;5049725;28;20236;-73
2022/06/09 00:16:59;;;;;;;6.38;3.25;;;;;;;16.17;96.19;94035.53;5050398;28;20250;-73
2022/06/09 00:19:27;;;;;;;5.93;3.90;;;;;;;16.13;96.19;94040.19;5050377;28;20196;-73
2022/06/09 00:21:54;;;;;;;5.80;3.47;;;;;;;16.12;95.86;94041.38;5053007;28;20281;-73
2022/06/09 00:24:21;;;;;;;7.00;3.85;;;;;;;16.11;95.55;94037.06;5054320;28;20622;-74
2022/06/09 00:26:49;;;;;;;5.28;3.47;;;;;;;16.10;96.02;94035.47;5053903;28;20207;-74
2022/06/09 00:29:16;;;;;;;6.75;3.90;;;;;;;15.98;96.71;94031.09;5054627;28;20216;-74
2022/06/09 00:31:43;;;;;;;5.20;3.60;;;;;;;15.96;97.10;94035.34;5054402;28;20709;-74
2022/06/09 00:34:10;;;;;;;6.63;3.47;;;;;;;15.96;97.08;94030.69;5054257;28;20546;-75
2022/06/09 00:36:38;;;;;;;6.63;3.88;;;;;;;16.02;97.07;94033.03;5054312;28;20588;-74
2022/06/09 00:39:05;;;;;;;6.00;3.53;;;;;;;16.04;97.20;94036.97;5054216;28;20658;-74
2022/06/09 00:41:38;;;;;;;6.03;3.95;;;;;;;16.06;97.28;94033.88;5053976;28;20205;-74
2022/06/09 00:44:19;;;;;;;8.10;4.25;;;;;;;16.03;97.07;94029.94;5058227;28;20212;-74
2022/06/09 00:46:52;;;;;;;6.00;3.85;;;;;;;15.90;97.43;94025.91;5054467;28;20227;-74
2022/06/09 00:49:24;;;;;;;6.93;4.22;;;;;;;15.79;98.11;94025.03;5053676;28;20235;-74
2022/06/09 00:51:56;;;;;;;7.10;4.28;;;;;;;15.73;98.81;94021.06;5053315;28;20627;-74
2022/06/09 00:54:26;;;;;;;6.65;3.90;;;;;;;15.68;99.83;94026.88;5053862;28;20238;-74
2022/06/09 00:56:56;;;;;;;11.18;5.03;;;;;;;15.67;99.64;94026.09;5054276;28;20227;-73
2022/06/09 00:59:27;;;;;;;7.97;4.70;;;;;;;15.71;99.34;94023.41;5053844;28;20246;-74
2022/06/09 01:01:54;;;;;;;8.75;4.50;;;;;;;15.76;98.66;94020.31;5053830;28;20195;-74
2022/06/09 01:04:23;;;;;;;6.35;4.38;;;;;;;15.86;98.46;94019.63;5053765;28;20780;-74
2022/06/09 01:06:54;;;;;;;8.00;3.85;;;;;;;16.00;98.32;94030.69;5053981;28;20423;-74
2022/06/09 01:09:25;;;;;;;8.35;4.75;;;;;;;16.04;98.30;94026.06;5053666;28;20224;-74
2022/06/09 01:11:55;;;;;;;10.45;4.32;;;;;;;15.98;97.84;94011.19;5053767;28;20219;-74
2022/06/09 01:14:26;;;;;;;9.35;4.70;;;;;;;15.98;97.92;94016.66;5052831;28;20239;-74
2022/06/09 01:17:02;;;;;;;6.80;4.60;;;;;;;15.91;98.80;94022.03;5039705;28;20196;-74
2022/06/09 01:19:57;;;;;;;9.85;6.93;;;;;;;15.98;99.14;94019.38;5052048;28;20664;-74
2022/06/09 01:22:57;;;;;;;7.72;4.82;;;;;;;16.08;98.75;94021.41;5052130;28;20582;-74
2022/06/09 01:25:55;;;;;;;8.32;5.25;;;;;;;16.02;98.78;94022.91;5028344;28;20294;-74
2022/06/09 01:28:52;;;;;;;7.85;5.50;;;;;;;16.11;98.12;94015.19;5046233;28;20223;-74
2022/06/09 01:31:30;;;;;;;8.73;5.13;;;;;;;16.04;97.96;94015.13;5051063;28;20587;-74
2022/06/09 01:34:04;;;;;;;12.27;5.72;;;;;;;16.02;98.03;94009.25;5052552;28;20515;-75
2022/06/09 01:36:36;;;;;;;9.75;5.47;;;;;;;16.11;97.93;94001.53;5052142;28;20604;-75
2022/06/09 01:39:05;;;;;;;12.32;5.72;;;;;;;16.27;97.58;94002.03;5052326;28;20211;-75
2022/06/09 01:41:32;;;;;;;12.77;5.93;;;;;;;16.33;97.32;94000.53;5052371;28;20227;-74
2022/06/09 01:44:00;;;;;;;12.63;6.35;;;;;;;16.18;96.72;93993.38;5055250;28;20203;-75
2022/06/09 01:46:32;;;;;;;11.73;7.53;;;;;;;16.14;96.88;93992.56;5051715;28;20703;-74
2022/06/09 01:49:02;;;;;;;10.13;6.75;;;;;;;16.00;97.50;94003.38;5051740;28;20262;-73
2022/06/09 01:51:34;;;;;;;12.18;7.20;;;;;;;15.95;97.75;93995.53;5051864;28;20644;-74
2022/06/09 01:54:04;;;;;;;9.98;6.13;;;;;;;15.97;98.02;93995.94;5051506;28;20728;-74
2022/06/09 01:56:36;;;;;;;11.98;7.28;;;;;;;15.99;97.30;94001.78;5051441;28;20203;-74
2022/06/09 01:59:08;;;;;;;14.70;7.40;;;;;;;16.03;97.38;94002.63;5038377;28;20821;-74
2022/06/09 02:01:41;;;;;;;16.25;6.90;;;;;;;16.06;98.05;94006.56;5052090;28;20253;-74
2022/06/09 02:04:15;;;;;;;10.35;6.53;;;;;;;16.01;98.72;94004.94;5051685;28;20220;-74
2022/06/09 02:06:43;;;;;;;12.43;5.82;;;;;;;16.17;98.38;94005.47;5051838;28;20263;-74
2022/06/09 02:09:10;;;;;;;11.15;6.40;;;;;;;16.16;97.43;94001.16;5051201;28;20200;-74
2022/06/09 02:11:47;;;;;;;13.15;9.50;;;;;;;16.08;97.54;93999.56;5038258;28;20239;-74
2022/06/09 02:14:16;;;;;;;13.63;7.55;;;;;;;15.97;98.32;94004.16;5004475;28;1362288;-73
2022/06/09 02:16:44;;;;;;;13.13;6.95;;;;;;;15.92;98.83;94004.47;5052468;28;20224;-73
2022/06/09 02:19:11;;;;;;;9.43;5.88;;;;;;;15.88;98.79;94006.38;5052458;28;20223;-74
2022/06/09 02:21:39;;;;;;;11.05;6.28;;;;;;;15.85;99.35;94007.16;5052415;28;20208;-74
2022/06/09 02:24:06;;;;;;;13.18;6.45;;;;;;;15.82;98.82;93997.75;5052422;28;20215;-73
2022/06/09 02:26:33;;;;;;;13.57;7.07;;;;;;;15.77;99.27;93994.56;5052393;28;20277;-74
2022/06/09 02:29:00;;;;;;;13.85;8.00;;;;;;;15.75;99.62;94011.34;5052678;28;20577;-74
2022/06/09 02:31:27;;;;;;;13.23;6.85;;;;;;;15.76;99.27;94015.63;5052032;28;20228;-74
2022/06/09 02:33:56;;;;;;;12.15;6.97;;;;;;;15.87;99.43;94015.72;5052329;28;20200;-74
2022/06/09 02:36:23;;;;;;;15.18;7.55;;;;;;;15.75;99.03;94014.06;5052117;28;20574;-74
2022/06/09 02:38:50;;;;;;;13.90;7.78;;;;;;;15.70;99.43;94024.56;5052036;28;20257;-74
2022/06/09 02:41:17;;;;;;;12.82;7.03;;;;;;;15.73;99.31;94031.97;5052541;28;20230;-74
2022/06/09 02:43:44;;;;;;;13.52;7.22;;;;;;;15.84;98.94;94021.97;5054734;28;20766;-73
2022/06/09 02:46:11;;;;;;;14.98;8.18;;;;;;;15.92;98.25;94029.06;5052023;28;20632;-73
2022/06/09 02:48:38;;;;;;;15.02;7.68;;;;;;;16.03;97.41;94029.94;5051444;28;20277;-74
2022/06/09 02:51:25;;;;;;;12.10;6.63;;;;;;;15.99;97.39;94020.91;5051146;28;20289;-74
2022/06/09 02:53:52;;;;;;;13.40;6.60;;;;;;;15.94;97.97;94021.28;5051524;28;20227;-74
2022/06/09 02:56:20;;;;;;;16.90;8.38;;;;;;;15.94;97.90;94019.34;5052144;28;20239;-74
2022/06/09 02:58:47;;;;;;;14.13;7.35;;;;;;;15.76;97.84;94023.03;5051161;28;20257;-73
2022/06/09 03:01:13;;;;;;;12.02;6.72;;;;;;;15.68;99.19;94015.94;5051738;28;20294;-74
2022/06/09 03:03:40;;;;;;;14.63;6.78;;;;;;;15.60;99.59;94017.81;5051800;28;20261;-74
2022/06/09 03:06:08;;;;;;;13.00;7.20;;;;;;;15.53;100.00;94023.97;5050914;28;20227;-74
2022/06/09 03:08:36;;;;;;;12.15;6.95;;;;;;;15.61;100.00;94020.16;5045927;28;20304;-74
2022/06/09 03:11:04;;;;;;;11.98;6.60;;;;;;;15.57;100.00;94013.91;5044656;28;20242;-74
2022/06/09 03:13:31;;;;;;;17.58;6.60;;;;;;;15.72;100.00;94030.41;5051484;28;20280;-74
2022/06/09 03:15:58;;;;;;;12.07;7.03;;;;;;;15.96;100.00;94024.44;5051532;28;20228;-74
2022/06/09 03:18:25;;;;;;;14.02;9.02;;;;;;;16.21;99.12;94027.38;5051653;28;20231;-74
2022/06/09 03:20:52;;;;;;;14.30;7.13;;;;;;;16.28;97.93;94020.00;5051269;28;20543;-74
2022/06/09 03:23:19;;;;;;;8.90;5.63;;;;;;;16.30;96.78;94012.22;5051043;28;20223;-74
2022/06/09 03:25:48;;;;;;;13.90;8.32;;;;;;;16.33;96.12;94027.88;5051250;28;20698;-74
2022/06/09 03:28:15;;;;;;;15.30;9.57;;;;;;;16.32;95.22;94020.81;5051371;28;20223;-74
2022/06/09 03:30:42;;;;;;;12.55;8.63;;;;;;;16.59;95.99;94015.94;5050798;28;20212;-74
2022/06/09 03:33:09;;;;;;;12.73;7.88;;;;;;;16.95;94.36;94014.22;5051212;28;20609;-74
2022/06/09 03:35:36;;;;;;;11.30;5.80;;;;;;;17.22;92.54;94020.22;5051438;28;20651;-74
2022/06/09 03:38:03;;;;;;;12.10;6.30;;;;;;;17.57;89.81;94014.13;5050905;28;20231;-74
2022/06/09 03:40:31;;;;;;;12.05;6.10;;;;;;;17.74;88.59;94021.63;5051290;28;20208;-74
2022/06/09 03:43:02;;;;;;;9.60;5.93;;;;;;;17.84;88.14;94013.81;5051091;28;20324;-74
2022/06/09 03:45:29;;;;;;;11.80;6.75;;;;;;;17.98;87.75;94016.59;5053857;28;20334;-74
2022/06/09 03:47:56;;;;;;;11.73;7.13;;;;;;;18.33;86.87;94013.88;5051045;28;20720;-74
2022/06/09 03:50:26;;;;;;;13.80;9.68;;;;;;;18.65;86.41;94013.09;5050631;28;20724;-74
2022/06/09 03:52:53;;;;;;;13.43;7.90;;;;;;;18.88;82.18;94020.91;5050703;28;20231;-73
2022/06/09 03:55:20;;;;;;;9.95;6.05;;;;;;;18.69;82.67;94009.19;5050755;28;20234;-74
2022/06/09 03:57:47;;;;;;;13.70;9.15;;;;;;;18.87;82.32;94009.16;5050692;28;20203;-74
2022/06/09 04:00:19;;;;;;;12.30;8.25;;;;;;;19.08;81.83;94009.09;5050381;28;20235;-74
2022/06/09 04:02:46;;;;;;;10.25;5.70;;;;;;;19.08;81.38;94008.31;5051162;28;20249;-74
2022/06/09 04:05:13;;;;;;;13.98;9.20;;;;;;;19.30;80.29;94009.03;5049931;28;20747;-74
2022/06/09 04:07:41;;;;;;;13.55;8.73;;;;;;;19.59;79.13;94005.03;5050758;28;20318;-77
2022/06/09 04:10:09;;;;;;;10.68;6.30;;;;;;;19.22;80.75;94008.28;5050964;28;20310;-75
2022/06/09 04:12:36;;;;;;;12.13;8.90;;;;;;;19.31;80.08;94011.38;5050791;28;20503;-78
2022/06/09 04:15:05;;;;;;;11.50;8.35;;;;;;;18.70;81.95;94015.47;5050182;28;20471;-73
2022/06/09 04:17:34;;;;;;;11.38;8.85;;;;;;;18.72;83.04;94007.63;5049752;28;20204;-74
2022/06/09 04:20:01;;;;;;;13.13;9.32;;;;;;;19.00;82.73;94013.03;5036632;28;20753;-73
2022/06/09 04:22:28;;;;;;;13.32;9.23;;;;;;;19.50;79.99;94008.22;5050406;28;20310;-73
2022/06/09 04:24:56;;;;;;;13.80;9.48;;;;;;;18.38;83.44;94016.22;5050351;28;20199;-73
2022/06/09 04:27:22;;;;;;;11.43;6.78;;;;;;;18.07;85.51;94011.50;5050148;28;20203;-73
2022/06/09 04:29:50;;;;;;;15.32;10.23;;;;;;;18.00;86.15;94006.03;5050598;28;20204;-73
2022/06/09 04:32:17;;;;;;;16.42;11.07;;;;;;;17.82;86.54;94016.94;5050176;28;20239;-73
2022/06/09 04:34:45;;;;;;;20.42;12.65;;;;;;;17.49;87.84;94018.03;5050253;28;20277;-73
2022/06/09 04:37:12;;;;;;;21.95;12.63;;;;;;;17.55;88.01;94008.25;5049769;28;20219;-73
2022/06/09 04:39:39;;;;;;;21.88;14.02;;;;;;;17.30;89.25;94007.38;5050614;28;20223;-73
2022/06/09 04:42:06;;;;;;;19.92;10.70;;;;;;;17.17;88.97;94014.34;5050766;28;20285;-72
2022/06/09 04:44:33;;;;;;;22.95;14.30;;;;;;;17.34;88.59;94003.50;5053304;28;20609;-73
2022/06/09 04:46:59;;;;;;;20.80;10.63;;;;;;;17.25;88.78;94010.47;5049493;28;20695;-72
2022/06/09 04:49:27;;;;;;;21.17;14.50;;;;;;;17.15;89.92;94008.47;5050034;28;20226;-72
2022/06/09 04:51:55;;;;;;;20.50;13.70;;;;;;;17.51;87.76;94004.69;5049938;28;20768;-73
2022/06/09 04:54:22;;;;;;;18.85;10.35;;;;;;;17.61;87.69;94005.91;5050167;28;20208;-73
2022/06/09 04:56:48;;;;;;;20.63;13.10;;;;;;;17.74;87.63;94009.91;5049984;28;20784;-73
2022/06/09 04:59:15;;;;;;;20.60;13.27;;;;;;;18.20;85.11;94009.94;5050224;28;20223;-74
2022/06/09 05:01:42;;;;;;;17.15;9.70;;;;;;;18.33;84.42;94011.13;5049337;28;20621;-74
2022/06/09 05:04:10;;;;;;;17.30;9.52;;;;;;;18.80;83.50;94004.47;5049681;28;20196;-73
2022/06/09 05:06:37;;;;;;;19.92;9.95;;;;;;;18.57;81.65;94006.84;5051357;28;20668;-73
2022/06/09 05:09:05;;;;;;;21.75;9.00;;;;;;;18.57;81.94;94006.03;5043850;28;20231;-74
2022/06/09 05:11:32;;;;;;;19.67;12.88;;;;;;;18.97;80.95;94007.56;5050450;28;20247;-73
2022/06/09 05:13:59;;;;;;;25.05;13.75;;;;;;;19.38;78.28;94010.59;5053249;28;20741;-73
2022/06/09 05:16:26;;;;;;;20.73;13.30;;;;;;;19.65;77.45;94003.44;5053657;28;20200;-74
2022/06/09 05:18:52;;;;;;;23.08;14.68;;;;;;;19.67;76.10;93995.56;5053726;28;20220;-73
2022/06/09 05:21:19;;;;;;;25.48;15.05;;;;;;;20.02;75.25;93996.53;5053884;28;20227;-74
2022/06/09 05:23:46;;;;;;;20.40;13.77;;;;;;;20.96;73.85;93987.91;5053849;28;20253;-74
2022/06/09 05:26:16;;;;;;;19.52;13.77;;;;;;;21.20;71.22;93995.13;5053469;28;20204;-74
2022/06/09 05:28:43;;;;;;;18.73;13.65;;;;;;;21.37;70.65;93987.88;5053506;28;20742;-74
2022/06/09 05:31:10;;;;;;;17.73;12.15;;;;;;;21.20;70.14;93986.88;5053356;28;20225;-72
2022/06/09 05:33:37;;;;;;;19.20;13.25;;;;;;;21.35;69.89;93981.19;5052996;28;20637;-73
2022/06/09 05:36:04;;;;;;;18.70;13.10;;;;;;;21.18;70.37;93986.47;5053255;28;20329;-73
2022/06/09 05:46:49;;;;;;;19.90;12.88;;;;;;;19.98;74.23;94004.78;5053332;28;20677;-73
2022/06/09 05:49:17;;;;;;;18.40;10.57;;;;;;;19.53;76.23;94006.63;5039937;28;20290;-73
2022/06/09 05:51:44;;;;;;;18.80;9.73;;;;;;;19.64;77.16;94012.06;5052856;28;20219;-73
2022/06/09 05:54:12;;;;;;;18.38;9.40;;;;;;;19.53;75.53;94001.13;5053281;28;20208;-73
2022/06/09 05:56:40;;;;;;;19.58;9.60;;;;;;;20.04;74.52;93997.69;5052439;28;20738;-74
2022/06/09 05:59:07;;;;;;;15.88;8.77;;;;;;;20.89;71.24;93991.53;5053055;28;20282;-74
2022/06/09 06:01:34;;;;;;;14.93;9.52;;;;;;;21.70;68.50;93989.03;5052649;28;20640;-74
2022/06/09 06:04:03;;;;;;;16.48;11.75;;;;;;;21.86;67.50;93986.47;5052939;28;20223;-75
2022/06/09 06:06:36;;;;;;;15.18;11.77;;;;;;;22.01;67.32;93989.81;5052694;28;20224;-74
2022/06/09 06:09:05;;;;;;;14.73;12.15;;;;;;;22.10;67.51;93987.31;5052688;28;20257;-74
2022/06/09 06:11:33;;;;;;;18.27;12.18;;;;;;;22.37;66.23;93984.56;5038854;28;20728;-74
2022/06/09 06:14:01;;;;;;;17.27;11.55;;;;;;;21.54;68.67;93992.38;5052125;28;20235;-74
2022/06/09 06:16:28;;;;;;;17.75;12.52;;;;;;;21.54;68.75;93986.09;5052446;28;20211;-74
2022/06/09 06:18:55;;;;;;;18.88;12.60;;;;;;;21.78;68.05;93978.69;5051386;28;20231;-74
2022/06/09 06:21:24;;;;;;;17.83;12.85;;;;;;;21.76;67.75;93976.34;5052190;28;20200;-74
2022/06/09 06:23:51;;;;;;;17.05;12.25;;;;;;;21.22;67.08;93980.94;5052696;28;20207;-75
2022/06/09 06:26:19;;;;;;;17.92;12.75;;;;;;;21.66;68.95;93982.78;5052321;28;20787;-74
2022/06/09 06:28:47;;;;;;;17.27;12.80;;;;;;;21.63;67.57;93969.81;5051656;28;20645;-74
2022/06/09 06:31:15;;;;;;;22.35;12.13;;;;;;;21.54;67.75;93975.06;5051953;28;20243;-74
2022/06/09 06:33:42;;;;;;;20.10;12.48;;;;;;;21.62;67.52;93971.00;5051714;28;20293;-74
2022/06/09 06:36:10;;;;;;;16.92;12.45;;;;;;;21.51;68.11;93975.88;5051941;28;20219;-74
2022/06/09 06:38:38;;;;;;;16.00;11.98;;;;;;;22.24;66.50;93969.78;5051819;28;20277;-74
2022/06/09 06:41:06;;;;;;;14.95;11.60;;;;;;;22.57;65.26;93968.81;5052379;28;20290;-74
2022/06/09 06:43:33;;;;;;;17.20;12.60;;;;;;;21.98;65.44;93974.06;5054718;28;20187;-74
2022/06/09 06:46:02;;;;;;;14.23;11.98;;;;;;;21.78;66.55;93971.19;5049888;28;20276;-74
2022/06/09 06:48:30;;;;;;;14.95;11.93;;;;;;;22.00;64.97;93962.66;5041024;28;20218;-74
2022/06/09 06:50:57;;;;;;;16.48;11.05;;;;;;;22.35;64.46;93967.63;5032415;28;20246;-74
2022/06/09 06:53:25;;;;;;;15.13;10.88;;;;;;;22.33;64.27;93961.72;5045380;28;20244;-74
2022/06/09 06:55:52;;;;;;;13.07;10.55;;;;;;;22.30;65.37;93965.31;5052237;28;20844;-74
2022/06/09 06:58:19;;;;;;;14.20;10.73;;;;;;;21.86;65.01;93969.91;5045811;28;20219;-74
2022/06/09 07:00:46;;;;;;;16.98;11.10;;;;;;;22.55;62.98;93964.94;5041024;28;20250;-74
2022/06/09 07:03:13;;;;;;;16.02;12.15;;;;;;;23.47;60.35;93966.00;5038967;28;20278;-74
2022/06/09 07:05:41;;;;;;;17.13;11.57;;;;;;;25.78;54.37;93949.28;5051774;28;20541;-74
2022/06/09 07:08:08;;;;;;;13.93;10.52;;;;;;;27.11;50.93;93950.19;5051245;28;20238;-74
2022/06/09 07:10:36;;;;;;;15.68;11.25;;;;;;;26.26;53.14;93952.94;5042030;28;20308;-74
2022/06/09 07:13:03;;;;;;;13.82;10.45;;;;;;;25.50;54.26;93948.84;5042260;28;20235;-74
2022/06/09 07:15:31;;;;;;;13.38;10.25;;;;;;;26.98;50.67;93946.69;5050599;28;20600;-77
2022/06/09 07:17:58;;;;;;;11.38;9.23;;;;;;;27.68;48.84;93942.63;5051197;28;20210;-74
2022/06/09 07:20:25;;;;;;;12.40;9.60;;;;;;;27.02;49.87;93947.34;5051203;28;20294;-75
2022/06/09 07:22:54;;;;;;;10.82;9.07;;;;;;;27.36;47.52;93944.53;5051397;28;20204;-77
2022/06/09 07:25:24;;;;;;;12.63;10.05;;;;;;;25.39;52.43;93948.38;5046340;28;20314;-76
2022/06/09 07:27:52;;;;;;;12.35;9.00;;;;;;;27.13;49.97;93948.53;5048018;28;20681;-73
2022/06/09 07:30:20;;;;;;;13.07;9.30;;;;;;;26.88;50.54;93941.00;5050888;28;20234;-74
2022/06/09 07:32:47;;;;;;;10.70;9.35;;;;;;;26.64;50.38;93945.41;5051241;28;20926;-74
2022/06/09 07:35:16;;;;;;;10.40;8.98;;;;;;;28.62;47.53;93928.19;5050673;28;20728;-75
2022/06/09 07:37:44;;;;;;;11.70;8.77;;;;;;;29.20;45.10;93930.19;5050698;28;20227;-75
2022/06/09 07:40:14;;;;;;;12.60;9.07;;;;;;;28.56;47.30;93932.84;5050765;28;20238;-76
2022/06/09 07:42:41;;;;;;;10.85;9.13;;;;;;;25.29;52.71;93949.44;5050620;28;20268;-75
2022/06/09 07:45:11;;;;;;;12.70;10.05;;;;;;;25.10;53.47;93942.06;5054125;28;20204;-75
2022/06/09 07:47:38;;;;;;;11.20;9.80;;;;;;;24.92;54.03;93942.50;5037942;28;20223;-76
2022/06/09 07:50:08;;;;;;;11.52;9.57;;;;;;;24.25;55.73;93938.66;5049598;28;20782;-76
2022/06/09 07:52:35;;;;;;;11.85;9.57;;;;;;;24.04;56.53;93935.16;5050406;28;20285;-77
2022/06/09 07:55:05;;;;;;;11.07;9.18;;;;;;;23.53;58.13;93933.91;5050882;28;20543;-74
2022/06/09 07:57:33;;;;;;;13.05;9.38;;;;;;;24.10;56.58;93933.41;5050521;28;20681;-74
2022/06/09 08:00:02;;;;;;;15.82;9.13;;;;;;;24.82;56.16;93926.16;5050343;28;20273;-75
2022/06/09 08:02:29;;;;;;;11.65;8.90;;;;;;;25.36;54.78;93920.75;5051072;28;20277;-76
2022/06/09 08:04:55;;;;;;;14.40;9.77;;;;;;;25.21;53.37;93923.13;5050726;28;20219;-75
2022/06/09 08:07:23;;;;;;;12.95;8.95;;;;;;;24.55;55.38;93920.91;5050780;28;20265;-75
2022/06/09 08:09:49;;;;;;;12.27;9.30;;;;;;;24.60;54.97;93921.16;5050367;28;20325;-75
2022/06/09 08:12:16;;;;;;;11.20;9.27;;;;;;;25.00;53.70;93910.66;5050644;28;20204;-75
2022/06/09 08:14:44;;;;;;;12.98;9.68;;;;;;;25.56;53.09;93912.25;5050356;28;20239;-75
2022/06/09 08:17:11;;;;;;;13.75;9.82;;;;;;;25.43;53.50;93915.75;5050690;28;20204;-74
2022/06/09 08:19:38;;;;;;;15.15;10.00;;;;;;;24.87;54.96;93911.78;5050769;28;20200;-73
2022/06/09 08:22:06;;;;;;;11.52;9.98;;;;;;;24.90;55.07;93910.88;5050364;28;20670;-74
2022/06/09 08:24:33;;;;;;;13.85;9.82;;;;;;;24.97;54.45;93905.19;5050604;28;20207;-74
2022/06/09 08:27:00;;;;;;;13.25;9.65;;;;;;;25.96;51.01;93896.78;5050621;28;20286;-75
2022/06/09 08:29:27;;;;;;;13.82;8.98;;;;;;;26.73;50.17;93903.81;5050589;28;20262;-75
2022/06/09 08:31:56;;;;;;;14.38;9.38;;;;;;;27.94;47.41;93893.88;5050403;28;20235;-75
2022/06/09 08:34:23;;;;;;;9.60;8.23;;;;;;;27.93;46.78;93887.53;5050123;28;20293;-75
2022/06/09 08:36:50;;;;;;;11.48;9.45;;;;;;;27.87;48.00;93894.94;5050539;28;20254;-76
2022/06/09 08:39:17;;;;;;;14.70;8.13;;;;;;;27.79;46.19;93888.09;5050344;28;20203;-76
2022/06/09 08:41:52;;;;;;;14.50;9.70;;;;;;;27.23;48.51;93888.19;5051087;28;20235;-75
2022/06/09 08:44:29;;;;;;;13.70;10.00;;;;;;;25.69;51.28;93888.91;5055952;28;20227;-75
2022/06/09 08:47:08;;;;;;;11.77;9.15;;;;;;;25.73;51.62;93888.75;5054126;28;20211;-76
2022/06/09 08:49:53;;;;;;;12.27;9.27;;;;;;;26.11;50.45;93886.75;5054439;28;20223;-75
2022/06/09 08:52:37;;;;;;;12.25;8.73;;;;;;;25.79;52.50;93887.00;5053771;28;20230;-76
2022/06/09 08:55:17;;;;;;;10.70;8.60;;;;;;;25.00;52.42;93888.47;5053966;28;20223;-75
2022/06/09 08:57:44;;;;;;;10.20;7.97;;;;;;;25.45;51.66;93896.69;5053586;28;20281;-75
2022/06/09 09:00:15;;;;;;;11.25;6.78;;;;;;;24.79;51.56;93895.34;5053160;28;20314;-75
2022/06/09 09:02:50;;;;;;;11.27;7.13;;;;;;;24.50;52.93;93886.22;5052997;28;20559;-75
2022/06/09 09:05:23;;;;;;;8.30;6.90;;;;;;;24.52;54.10;93881.00;5054178;28;20195;-75
2022/06/09 09:07:52;;;;;;;11.40;8.82;;;;;;;23.82;56.89;93878.75;5053888;28;20231;-74
2022/06/09 09:10:23;;;;;;;9.13;7.38;;;;;;;23.74;59.84;93877.38;5041013;28;20216;-75
2022/06/09 09:13:01;;;;;;;12.10;8.02;;;;;;;23.51;59.00;93877.47;5053498;28;20313;-75
2022/06/09 09:15:31;;;;;;;10.48;7.50;;;;;;;23.35;58.13;93872.66;5053818;28;20310;-73
2022/06/09 09:18:15;;;;;;;10.65;7.95;;;;;;;24.34;56.81;93858.53;5054116;28;20226;-75
2022/06/09 09:20:51;;;;;;;9.82;7.55;;;;;;;24.91;54.75;93863.34;5053901;28;20286;-75
2022/06/09 09:23:21;;;;;;;10.23;7.43;;;;;;;25.33;53.83;93861.38;5040505;28;20561;-75
2022/06/09 09:26:03;;;;;;;12.70;8.18;;;;;;;25.84;52.05;93842.81;5053327;28;20219;-75
2022/06/09 09:28:32;;;;;;;9.52;7.20;;;;;;;25.62;52.56;93860.56;5053743;28;20195;-74
2022/06/09 09:31:10;;;;;;;10.45;7.90;;;;;;;25.58;54.32;93843.22;5053255;28;20216;-75
2022/06/09 09:33:39;;;;;;;10.38;8.65;;;;;;;25.80;51.33;93841.38;5053335;28;20316;-75
2022/06/09 09:36:23;;;;;;;10.23;7.75;;;;;;;26.06;51.25;93836.59;5053717;28;20265;-74
2022/06/09 09:38:54;;;;;;;11.93;8.38;;;;;;;26.38;51.54;93838.31;5053390;28;20192;-76
2022/06/09 09:41:33;;;;;;;9.70;7.22;;;;;;;26.58;51.04;93833.28;5053239;28;20269;-74
2022/06/09 09:44:01;;;;;;;12.82;7.78;;;;;;;27.32;49.91;93831.84;5056087;28;20215;-75
2022/06/09 09:46:32;;;;;;;9.18;7.07;;;;;;;27.02;48.74;93827.78;5052761;28;20748;-75
2022/06/09 09:49:15;;;;;;;11.85;8.07;;;;;;;27.07;46.90;93816.84;5052894;28;20632;-75
2022/06/09 09:51:43;;;;;;;11.57;8.18;;;;;;;26.92;48.03;93820.59;5052611;28;20211;-74
2022/06/09 09:54:19;;;;;;;12.88;7.55;;;;;;;26.06;48.71;93817.94;5039881;28;20342;-73
2022/06/09 09:56:47;;;;;;;8.85;6.78;;;;;;;26.49;48.87;93816.53;5052841;28;20801;-74
2022/06/09 09:59:24;;;;;;;12.13;7.43;;;;;;;25.66;50.86;93816.84;5053007;28;20786;-74
2022/06/09 10:10:26;;;;;;;9.40;7.20;;;;;;;25.13;50.71;93802.59;5039339;28;20303;-75
2022/06/09 10:12:54;;;;;;;10.25;6.82;;;;;;;25.48;50.47;93800.72;5052814;28;20230;-74
2022/06/09 10:15:23;;;;;;;9.85;6.03;;;;;;;25.82;50.18;93800.09;5052400;28;20274;-74
2022/06/09 10:17:57;;;;;;;7.78;6.13;;;;;;;25.53;49.40;93802.19;5051998;28;20207;-74
2022/06/09 10:20:33;;;;;;;7.43;6.25;;;;;;;25.68;49.61;93803.31;5052033;28;20329;-73
2022/06/09 10:23:04;;;;;;;9.73;6.70;;;;;;;25.99;47.81;93789.63;5052434;28;20670;-73
2022/06/09 10:25:43;;;;;;;7.47;6.22;;;;;;;26.27;48.04;93794.22;5052331;28;20220;-75
2022/06/09 10:28:30;;;;;;;7.07;4.70;;;;;;;26.64;49.28;93784.25;5039515;28;20215;-75
2022/06/09 10:31:03;;;;;;;11.85;5.50;;;;;;;26.22;47.01;93780.91;5052556;28;20234;-74
2022/06/09 10:33:36;;;;;;;6.85;5.40;;;;;;;26.30;47.52;93784.25;5051582;28;20215;-74
2022/06/09 10:36:12;;;;;;;5.30;4.80;;;;;;;26.55;46.12;93779.38;5052101;28;20207;-74
2022/06/09 10:38:44;;;;;;;7.68;5.47;;;;;;;26.74;47.44;93780.31;5051870;28;20229;-77
2022/06/09 10:41:13;;;;;;;9.68;4.57;;;;;;;26.24;47.06;93772.16;5039109;28;20755;-75
2022/06/09 10:43:45;;;;;;;7.95;5.28;;;;;;;26.48;46.61;93782.41;5055542;28;20191;-77
2022/06/09 10:46:22;;;;;;;6.40;4.95;;;;;;;25.94;47.25;93781.88;5051419;28;20772;-76
2022/06/09 10:57:27;;;;;;;7.70;4.40;;;;;;;26.11;47.61;93767.38;5051803;28;20219;-76
2022/06/09 11:00:00;;;;;;;5.28;3.97;;;;;;;26.04;44.48;93773.19;5051776;28;20639;-74
2022/06/09 11:02:31;;;;;;;4.75;4.00;;;;;;;26.23;46.34;93759.47;5051833;28;20219;-75
2022/06/09 11:04:58;;;;;;;4.50;3.65;;;;;;;26.85;43.92;93755.66;5050274;28;20243;-76
2022/06/09 11:07:48;;;;;;;5.38;4.57;;;;;;;25.69;46.21;93761.25;5051462;28;20224;-73
2022/06/09 11:10:29;;;;;;;7.80;4.75;;;;;;;26.48;45.12;93759.41;5050777;28;20284;-74
2022/06/09 11:13:18;;;;;;;7.53;5.00;;;;;;;27.16;45.69;93752.97;5051446;28;20200;-75
2022/06/09 11:15:56;;;;;;;6.03;4.50;;;;;;;27.97;43.81;93739.81;5048955;28;20258;-75
2022/06/09 11:18:32;;;;;;;8.75;5.43;;;;;;;27.59;42.24;93740.97;5050918;28;20641;-74
2022/06/09 11:21:08;;;;;;;5.78;4.22;;;;;;;26.73;43.32;93747.41;5051784;28;20208;-75
2022/06/09 11:23:48;;;;;;;7.25;4.85;;;;;;;27.04;46.12;93744.69;5051378;28;20628;-75
2022/06/09 11:26:27;;;;;;;6.38;4.78;;;;;;;27.08;45.91;93748.09;5051366;28;20273;-75
2022/06/09 11:29:03;;;;;;;8.07;4.60;;;;;;;27.39;45.38;93726.63;5051426;28;20598;-74
2022/06/09 11:31:56;;;;;;;6.47;4.40;;;;;;;27.38;44.69;93721.53;5039029;28;20191;-75
2022/06/09 11:34:52;;;;;;;5.78;4.82;;;;;;;26.69;45.03;93735.63;5051044;28;20278;-75
2022/06/09 11:37:32;;;;;;;6.45;5.50;;;;;;;26.59;45.32;93723.69;5051052;28;20255;-75
2022/06/09 11:40:13;;;;;;;8.10;5.38;;;;;;;27.69;43.60;93707.59;5051011;28;20227;-75
2022/06/09 11:43:01;;;;;;;6.15;4.85;;;;;;;27.46;43.26;93708.91;5051342;28;20195;-76
2022/06/09 11:45:31;;;;;;;6.93;4.63;;;;;;;28.38;43.58;93698.72;5054130;28;20629;-75
2022/06/09 11:48:01;;;;;;;6.88;4.20;;;;;;;28.47;43.41;93701.50;5050507;28;20314;-76
2022/06/09 11:50:34;;;;;;;8.45;4.45;;;;;;;27.70;44.02;93692.44;5050794;28;20600;-76
2022/06/09 11:53:02;;;;;;;5.20;4.43;;;;;;;27.80;43.48;93688.44;5051216;28;20702;-75
2022/06/09 11:58:43;;;;;;;8.18;4.10;;;;;;;28.15;45.55;93692.53;5050804;28;20216;-76
2022/06/09 12:01:22;;;;;;;6.97;4.55;;;;;;;27.34;44.97;93691.06;5036051;28;20227;-77
2022/06/09 12:04:03;;;;;;;6.13;4.32;;;;;;;26.37;45.02;93701.47;5050109;28;20707;-75
2022/06/09 12:06:50;;;;;;;6.60;4.72;;;;;;;25.59;47.59;93703.31;5048169;28;20744;-78
2022/06/09 12:09:30;;;;;;;7.75;4.10;;;;;;;25.73;46.18;93694.53;5042872;28;20303;-78
2022/06/09 12:12:01;;;;;;;6.00;4.05;;;;;;;26.12;45.58;93693.97;5044893;28;20234;-78